PWSweather.com
Personal Weather Stations
Station Observations
SUBOTICARS
SuboticaYU

SuboticaYU

Lat: 46.1296717, Lon: 19.641551

Elevation: 361

Station Type: Nexus

http://sumeteo.info

Latest ConditionsUpdated 12:50:01 PM GMT+01:01 Friday, Apr 19, 2019
Currently Today's Max Today's Min Today's Average
Temperature 72.1°F22.3°C 72.1°F22.3°C 43.7°F6.5°C 54.5°F12.5°C
Dew Point 34.4°F1.3°C 40.7°F4.8°C 30.9°F-0.6°C 35.4°F1.9°C
Winds 6.9 mph NE11.1 kmh NE 9.2 mph -14.8 kmh - - 4.0 mph 6.4 kmh
Wind Gusts 6.9 mph11.1 kmh 16.1 mph25.9 kmh - -
Humidity 25% 73% 25% 53%
Pressure 29.99 in1015.6 mb 30.05 in1017.6 mb 29.99 in1015.6 mb -
Hour Temp Dew Point Humidity Winds Wind Gusts Pressure Precip Precip Rate Daily Precip Total
12:50 PM 72.1°F22.3°C 34.4°F1.3°C 25% 6.9 mph NE11.1 kmh NE 6.9 mph11.1 kmh 29.99 in1015.6 mb - 0.00 in0.0 mm 0.00 in0.0 mm
12:45 PM 72.1°F22.3°C 34.3°F1.3°C 25% 5.8 mph NE9.3 kmh NE 6.9 mph11.1 kmh 29.99 in1015.6 mb - 0.00 in0.0 mm 0.00 in0.0 mm
12:40 PM 71.6°F22.0°C 33.9°F1.1°C 25% 8.1 mph NNW13.0 kmh NNW 9.2 mph14.8 kmh 29.99 in1015.6 mb - 0.00 in0.0 mm 0.00 in0.0 mm
12:35 PM 70.3°F21.3°C 32.8°F0.4°C 25% 9.2 mph NE14.8 kmh NE 8.1 mph13.0 kmh 29.99 in1015.6 mb - 0.00 in0.0 mm 0.00 in0.0 mm
12:30 PM 70.2°F21.2°C 32.7°F0.4°C 25% 4.6 mph NE7.4 kmh NE 3.5 mph5.6 kmh 29.99 in1015.6 mb - 0.00 in0.0 mm 0.00 in0.0 mm
12:25 PM 70.3°F21.3°C 32.8°F0.4°C 25% 6.9 mph ENE11.1 kmh ENE 11.5 mph18.5 kmh 30.00 in1015.9 mb - 0.00 in0.0 mm 0.00 in0.0 mm
12:20 PM 70.3°F21.3°C 32.8°F0.4°C 25% 4.6 mph NE7.4 kmh NE 5.8 mph9.3 kmh 30.00 in1015.9 mb - 0.00 in0.0 mm 0.00 in0.0 mm
12:15 PM 70.3°F21.3°C 32.8°F0.4°C 25% 5.8 mph NE9.3 kmh NE 11.5 mph18.5 kmh 30.00 in1015.9 mb - 0.00 in0.0 mm 0.00 in0.0 mm
12:10 PM 70.2°F21.2°C 32.7°F0.4°C 25% 8.1 mph NNW13.0 kmh NNW 9.2 mph14.8 kmh 30.00 in1015.9 mb - 0.00 in0.0 mm 0.00 in0.0 mm
12:00 PM 69.6°F20.9°C 32.2°F0.1°C 25% 8.1 mph NNW13.0 kmh NNW 11.5 mph18.5 kmh 30.00 in1015.9 mb - 0.00 in0.0 mm 0.00 in0.0 mm
11:55 AM 69.6°F20.9°C 33.2°F0.7°C 26% 5.8 mph N9.3 kmh N 8.1 mph13.0 kmh 30.00 in1015.9 mb - 0.00 in0.0 mm 0.00 in0.0 mm
11:50 AM 69.6°F20.9°C 33.1°F0.6°C 26% 5.8 mph N9.3 kmh N 9.2 mph14.8 kmh 30.00 in1015.9 mb - 0.00 in0.0 mm 0.00 in0.0 mm
11:45 AM 69.6°F20.9°C 33.2°F0.7°C 26% 4.6 mph N7.4 kmh N 6.9 mph11.1 kmh 30.00 in1015.9 mb - 0.00 in0.0 mm 0.00 in0.0 mm
11:40 AM 69.8°F21.0°C 32.4°F0.2°C 25% 6.9 mph N11.1 kmh N 6.9 mph11.1 kmh 30.02 in1016.6 mb - 0.00 in0.0 mm 0.00 in0.0 mm
11:35 AM 69.8°F21.0°C 32.4°F0.2°C 25% 5.8 mph NE9.3 kmh NE 6.9 mph11.1 kmh 30.02 in1016.6 mb - 0.00 in0.0 mm 0.00 in0.0 mm
11:30 AM 69.1°F20.6°C 31.8°F-0.1°C 25% 5.8 mph NNW9.3 kmh NNW 6.9 mph11.1 kmh 30.02 in1016.6 mb - 0.00 in0.0 mm 0.00 in0.0 mm
11:25 AM 69.1°F20.6°C 33.7°F0.9°C 27% 4.6 mph NNE7.4 kmh NNE 5.8 mph9.3 kmh 30.02 in1016.6 mb - 0.00 in0.0 mm 0.00 in0.0 mm
11:20 AM 68.1°F20.1°C 30.9°F-0.6°C 25% 5.8 mph NNE9.3 kmh NNE 9.2 mph14.8 kmh 30.02 in1016.6 mb - 0.00 in0.0 mm 0.00 in0.0 mm
11:15 AM 68.5°F20.3°C 31.3°F-0.4°C 25% 5.8 mph NNE9.3 kmh NNE 8.1 mph13.0 kmh 30.02 in1016.6 mb - 0.00 in0.0 mm 0.00 in0.0 mm
11:10 AM 68.5°F20.3°C 33.2°F0.7°C 27% 4.6 mph NW7.4 kmh NW 3.5 mph5.6 kmh 30.03 in1016.9 mb - 0.00 in0.0 mm 0.00 in0.0 mm
11:00 AM 68.5°F20.3°C 33.2°F0.7°C 27% 9.2 mph NW14.8 kmh NW 11.5 mph18.5 kmh 30.03 in1016.9 mb - 0.00 in0.0 mm 0.00 in0.0 mm
10:55 AM 68.7°F20.4°C 34.3°F1.3°C 28% 3.5 mph NE5.6 kmh NE 4.6 mph7.4 kmh 30.03 in1016.9 mb - 0.00 in0.0 mm 0.00 in0.0 mm
10:50 AM 67.5°F19.7°C 31.3°F-0.4°C 26% 4.6 mph NNW7.4 kmh NNW 5.8 mph9.3 kmh 30.03 in1016.9 mb - 0.00 in0.0 mm 0.00 in0.0 mm
10:45 AM 68.4°F20.2°C 34.8°F1.6°C 29% 4.6 mph NE7.4 kmh NE 4.6 mph7.4 kmh 30.03 in1016.9 mb - 0.00 in0.0 mm 0.00 in0.0 mm
10:40 AM 67.8°F19.9°C 31.7°F-0.2°C 26% 5.8 mph NW9.3 kmh NW 6.9 mph11.1 kmh 30.03 in1016.9 mb - 0.00 in0.0 mm 0.00 in0.0 mm
10:35 AM 67.5°F19.7°C 34.1°F1.2°C 29% 3.5 mph ENE5.6 kmh ENE 4.6 mph7.4 kmh 30.03 in1016.9 mb - 0.00 in0.0 mm 0.00 in0.0 mm
10:30 AM 66.8°F19.3°C 33.5°F0.8°C 29% 3.5 mph NNE5.6 kmh NNE 4.6 mph7.4 kmh 30.03 in1016.9 mb - 0.00 in0.0 mm 0.00 in0.0 mm
10:25 AM 67.1°F19.5°C 32.9°F0.5°C 28% 5.8 mph NNW9.3 kmh NNW 5.8 mph9.3 kmh 30.04 in1017.3 mb - 0.00 in0.0 mm 0.00 in0.0 mm
10:20 AM 66.9°F19.4°C 32.7°F0.4°C 28% 8.1 mph NNE13.0 kmh NNE 10.4 mph16.7 kmh 30.04 in1017.3 mb - 0.00 in0.0 mm 0.00 in0.0 mm
10:15 AM 66.4°F19.1°C 33.1°F0.6°C 29% 9.2 mph NE14.8 kmh NE 16.1 mph25.9 kmh 30.04 in1017.3 mb - 0.00 in0.0 mm 0.00 in0.0 mm
10:10 AM 66.4°F19.1°C 34.0°F1.1°C 30% 5.8 mph E9.3 kmh E 5.8 mph9.3 kmh 30.04 in1017.3 mb - 0.00 in0.0 mm 0.00 in0.0 mm
10:00 AM 66.2°F19.0°C 34.7°F1.5°C 31% 4.6 mph ENE7.4 kmh ENE 10.4 mph16.7 kmh 30.04 in1017.3 mb - 0.00 in0.0 mm 0.00 in0.0 mm
09:55 AM 66.0°F18.9°C 34.5°F1.4°C 31% 6.9 mph ENE11.1 kmh ENE 8.1 mph13.0 kmh 30.04 in1017.3 mb - 0.00 in0.0 mm 0.00 in0.0 mm
09:50 AM 66.0°F18.9°C 34.5°F1.4°C 31% 5.8 mph NNE9.3 kmh NNE 9.2 mph14.8 kmh 30.04 in1017.3 mb - 0.00 in0.0 mm 0.00 in0.0 mm
09:45 AM 66.0°F18.9°C 33.7°F0.9°C 30% 6.9 mph NE11.1 kmh NE 9.2 mph14.8 kmh 30.04 in1017.3 mb - 0.00 in0.0 mm 0.00 in0.0 mm
09:40 AM 66.2°F19.0°C 35.4°F1.9°C 32% 3.5 mph NNE5.6 kmh NNE 3.5 mph5.6 kmh 30.04 in1017.3 mb - 0.00 in0.0 mm 0.00 in0.0 mm
09:35 AM 66.2°F19.0°C 34.7°F1.5°C 31% 5.8 mph N9.3 kmh N 5.8 mph9.3 kmh 30.04 in1017.3 mb - 0.00 in0.0 mm 0.00 in0.0 mm
09:30 AM 65.1°F18.4°C 32.9°F0.5°C 30% 4.6 mph NNE7.4 kmh NNE 4.6 mph7.4 kmh 30.04 in1017.3 mb - 0.00 in0.0 mm 0.00 in0.0 mm
09:25 AM 65.1°F18.4°C 34.5°F1.4°C 32% 5.8 mph NE9.3 kmh NE 9.2 mph14.8 kmh 30.05 in1017.6 mb - 0.00 in0.0 mm 0.00 in0.0 mm
09:20 AM 64.9°F18.3°C 35.8°F2.1°C 34% 5.8 mph NE9.3 kmh NE 8.1 mph13.0 kmh 30.05 in1017.6 mb - 0.00 in0.0 mm 0.00 in0.0 mm
09:15 AM 64.9°F18.3°C 35.1°F1.7°C 33% 5.8 mph NNE9.3 kmh NNE 5.8 mph9.3 kmh 30.05 in1017.6 mb - 0.00 in0.0 mm 0.00 in0.0 mm
09:10 AM 64.8°F18.2°C 35.7°F2.1°C 34% 4.6 mph N7.4 kmh N 5.8 mph9.3 kmh 30.04 in1017.3 mb - 0.00 in0.0 mm 0.00 in0.0 mm
09:00 AM 63.9°F17.7°C 37.1°F2.8°C 37% 4.6 mph NNE7.4 kmh NNE 5.8 mph9.3 kmh 30.04 in1017.3 mb - 0.00 in0.0 mm 0.00 in0.0 mm
08:55 AM 63.6°F17.6°C 36.8°F2.7°C 37% 6.9 mph NE11.1 kmh NE 5.8 mph9.3 kmh 30.05 in1017.6 mb - 0.00 in0.0 mm 0.00 in0.0 mm
08:50 AM 63.8°F17.7°C 37.7°F3.2°C 38% 5.8 mph NE9.3 kmh NE 8.1 mph13.0 kmh 30.05 in1017.6 mb - 0.00 in0.0 mm 0.00 in0.0 mm
08:45 AM 63.7°F17.6°C 40.1°F4.5°C 42% 4.6 mph ENE7.4 kmh ENE 6.9 mph11.1 kmh 30.05 in1017.6 mb - 0.00 in0.0 mm 0.00 in0.0 mm
08:40 AM 63.3°F17.4°C 39.2°F4.0°C 41% 6.9 mph NNE11.1 kmh NNE 8.1 mph13.0 kmh 30.04 in1017.3 mb - 0.00 in0.0 mm 0.00 in0.0 mm
08:35 AM 62.8°F17.1°C 38.7°F3.7°C 41% 3.5 mph NE5.6 kmh NE 3.5 mph5.6 kmh 30.04 in1017.3 mb - 0.00 in0.0 mm 0.00 in0.0 mm
08:30 AM 62.8°F17.1°C 39.9°F4.4°C 43% 4.6 mph ENE7.4 kmh ENE 4.6 mph7.4 kmh 30.04 in1017.3 mb - 0.00 in0.0 mm 0.00 in0.0 mm
08:25 AM 62.3°F16.8°C 40.1°F4.5°C 44% 5.8 mph N9.3 kmh N 4.6 mph7.4 kmh 30.04 in1017.3 mb - 0.00 in0.0 mm 0.00 in0.0 mm
08:20 AM 61.7°F16.5°C 40.7°F4.8°C 46% 4.6 mph ENE7.4 kmh ENE 4.6 mph7.4 kmh 30.04 in1017.3 mb - 0.00 in0.0 mm 0.00 in0.0 mm
08:15 AM 60.8°F16.0°C 38.1°F3.4°C 43% 6.9 mph NNE11.1 kmh NNE 9.2 mph14.8 kmh 30.04 in1017.3 mb - 0.00 in0.0 mm 0.00 in0.0 mm
08:10 AM 60.8°F16.0°C 38.7°F3.7°C 44% 4.6 mph NE7.4 kmh NE 5.8 mph9.3 kmh 30.04 in1017.3 mb - 0.00 in0.0 mm 0.00 in0.0 mm
08:00 AM 60.0°F15.6°C 39.7°F4.3°C 47% 4.6 mph ENE7.4 kmh ENE 5.8 mph9.3 kmh 30.04 in1017.3 mb - 0.00 in0.0 mm 0.00 in0.0 mm
07:55 AM 59.3°F15.2°C 39.1°F3.9°C 47% 5.8 mph N9.3 kmh N 6.9 mph11.1 kmh 30.03 in1016.9 mb - 0.00 in0.0 mm 0.00 in0.0 mm
07:50 AM 58.8°F14.9°C 40.2°F4.6°C 50% 4.6 mph NNE7.4 kmh NNE 5.8 mph9.3 kmh 30.03 in1016.9 mb - 0.00 in0.0 mm 0.00 in0.0 mm
07:45 AM 58.1°F14.5°C 40.1°F4.5°C 51% 3.5 mph NNE5.6 kmh NNE 4.6 mph7.4 kmh 30.03 in1016.9 mb - 0.00 in0.0 mm 0.00 in0.0 mm
07:40 AM 57.6°F14.2°C 40.1°F4.5°C 52% 3.5 mph NE5.6 kmh NE 4.6 mph7.4 kmh 30.04 in1017.3 mb - 0.00 in0.0 mm 0.00 in0.0 mm
07:35 AM 56.9°F13.8°C 40.4°F4.7°C 54% 3.5 mph ENE5.6 kmh ENE 3.5 mph5.6 kmh 30.04 in1017.3 mb - 0.00 in0.0 mm 0.00 in0.0 mm
07:30 AM 55.8°F13.2°C 38.9°F3.8°C 53% 4.6 mph NNW7.4 kmh NNW 4.6 mph7.4 kmh 30.04 in1017.3 mb - 0.00 in0.0 mm 0.00 in0.0 mm
07:25 AM 55.5°F13.1°C 39.1°F3.9°C 54% 3.5 mph NE5.6 kmh NE 3.5 mph5.6 kmh 30.04 in1017.3 mb - 0.00 in0.0 mm 0.00 in0.0 mm
07:20 AM 54.9°F12.7°C 39.0°F3.9°C 55% 3.5 mph NE5.6 kmh NE 3.5 mph5.6 kmh 30.04 in1017.3 mb - 0.00 in0.0 mm 0.00 in0.0 mm
07:15 AM 54.1°F12.3°C 38.3°F3.5°C 55% 3.5 mph N5.6 kmh N 3.5 mph5.6 kmh 30.04 in1017.3 mb - 0.00 in0.0 mm 0.00 in0.0 mm
07:10 AM 53.8°F12.1°C 38.4°F3.6°C 56% 4.6 mph NNE7.4 kmh NNE 5.8 mph9.3 kmh 30.03 in1016.9 mb - 0.00 in0.0 mm 0.00 in0.0 mm
07:00 AM 52.7°F11.5°C 38.8°F3.8°C 59% 4.6 mph NE7.4 kmh NE 4.6 mph7.4 kmh 30.03 in1016.9 mb - 0.00 in0.0 mm 0.00 in0.0 mm
06:55 AM 52.2°F11.2°C 37.8°F3.2°C 58% 4.6 mph NNE7.4 kmh NNE 6.9 mph11.1 kmh 30.03 in1016.9 mb - 0.00 in0.0 mm 0.00 in0.0 mm
06:50 AM 51.6°F10.9°C 38.2°F3.4°C 60% 3.5 mph NNW5.6 kmh NNW 3.5 mph5.6 kmh 30.03 in1016.9 mb - 0.00 in0.0 mm 0.00 in0.0 mm
06:45 AM 50.9°F10.5°C 38.3°F3.5°C 62% 3.5 mph N5.6 kmh N 4.6 mph7.4 kmh 30.03 in1016.9 mb - 0.00 in0.0 mm 0.00 in0.0 mm
06:40 AM 50.2°F10.1°C 38.1°F3.4°C 63% 3.5 mph NE5.6 kmh NE 3.5 mph5.6 kmh 30.03 in1016.9 mb - 0.00 in0.0 mm 0.00 in0.0 mm
06:35 AM 49.4°F9.7°C 38.1°F3.4°C 65% 3.5 mph NNW5.6 kmh NNW 3.5 mph5.6 kmh 30.03 in1016.9 mb - 0.00 in0.0 mm 0.00 in0.0 mm
06:30 AM 49.0°F9.4°C 37.8°F3.2°C 65% 2.3 mph NNE3.7 kmh NNE 3.5 mph5.6 kmh 30.03 in1016.9 mb - 0.00 in0.0 mm 0.00 in0.0 mm
06:25 AM 48.5°F9.2°C 37.6°F3.1°C 66% 3.5 mph NE5.6 kmh NE 3.5 mph5.6 kmh 30.03 in1016.9 mb - 0.00 in0.0 mm 0.00 in0.0 mm
06:20 AM 48.0°F8.9°C 37.2°F2.9°C 66% 3.5 mph NNW5.6 kmh NNW 3.5 mph5.6 kmh 30.03 in1016.9 mb - 0.00 in0.0 mm 0.00 in0.0 mm
06:15 AM 47.3°F8.5°C 37.3°F2.9°C 68% 2.3 mph N3.7 kmh N 3.5 mph5.6 kmh 30.03 in1016.9 mb - 0.00 in0.0 mm 0.00 in0.0 mm
06:10 AM 46.9°F8.3°C 37.3°F2.9°C 69% 2.3 mph NNE3.7 kmh NNE 3.5 mph5.6 kmh 30.03 in1016.9 mb - 0.00 in0.0 mm 0.00 in0.0 mm
06:00 AM 46.1°F7.8°C 36.9°F2.7°C 70% 3.5 mph NNW5.6 kmh NNW 3.5 mph5.6 kmh 30.03 in1016.9 mb - 0.00 in0.0 mm 0.00 in0.0 mm
05:55 AM 45.7°F7.6°C 36.8°F2.7°C 71% 2.3 mph NNE3.7 kmh NNE 3.5 mph5.6 kmh 30.02 in1016.6 mb - 0.00 in0.0 mm 0.00 in0.0 mm
05:50 AM 45.5°F7.5°C 36.6°F2.6°C 71% 2.3 mph N3.7 kmh N 3.5 mph5.6 kmh 30.02 in1016.6 mb - 0.00 in0.0 mm 0.00 in0.0 mm
05:45 AM 45.1°F7.3°C 36.6°F2.6°C 72% 3.5 mph NNW5.6 kmh NNW 3.5 mph5.6 kmh 30.02 in1016.6 mb - 0.00 in0.0 mm 0.00 in0.0 mm
05:40 AM 44.6°F7.0°C 36.1°F2.3°C 72% 2.3 mph N3.7 kmh N 3.5 mph5.6 kmh 30.02 in1016.6 mb - 0.00 in0.0 mm 0.00 in0.0 mm
05:35 AM 44.4°F6.9°C 36.0°F2.2°C 72% 2.3 mph N3.7 kmh N 3.5 mph5.6 kmh 30.02 in1016.6 mb - 0.00 in0.0 mm 0.00 in0.0 mm
05:30 AM 44.2°F6.8°C 35.8°F2.1°C 72% 2.3 mph NNW3.7 kmh NNW 2.3 mph3.7 kmh 30.02 in1016.6 mb - 0.00 in0.0 mm 0.00 in0.0 mm
05:25 AM 44.1°F6.7°C 35.6°F2.0°C 72% 2.3 mph NNW3.7 kmh NNW 3.5 mph5.6 kmh 30.03 in1016.9 mb - 0.00 in0.0 mm 0.00 in0.0 mm
05:20 AM 43.9°F6.6°C 35.8°F2.1°C 73% 3.5 mph 5.6 kmh 3.5 mph5.6 kmh 30.03 in1016.9 mb - 0.00 in0.0 mm 0.00 in0.0 mm
05:15 AM 43.9°F6.6°C 35.8°F2.1°C 73% 2.3 mph NNW3.7 kmh NNW 3.5 mph5.6 kmh 30.03 in1016.9 mb - 0.00 in0.0 mm 0.00 in0.0 mm
05:10 AM 43.7°F6.5°C 35.6°F2.0°C 73% 3.5 mph N5.6 kmh N 3.5 mph5.6 kmh 30.01 in1016.3 mb - 0.00 in0.0 mm 0.00 in0.0 mm
05:00 AM 43.8°F6.6°C 35.0°F1.7°C 71% 3.5 mph NNE5.6 kmh NNE 3.5 mph5.6 kmh 30.01 in1016.3 mb - 0.00 in0.0 mm 0.00 in0.0 mm
04:55 AM 43.9°F6.6°C 35.4°F1.9°C 72% 3.5 mph N5.6 kmh N 3.5 mph5.6 kmh 30.01 in1016.3 mb - 0.00 in0.0 mm 0.00 in0.0 mm
04:50 AM 44.1°F6.7°C 35.6°F2.0°C 72% 2.3 mph N3.7 kmh N 3.5 mph5.6 kmh 30.01 in1016.3 mb - 0.00 in0.0 mm 0.00 in0.0 mm
04:45 AM 44.2°F6.8°C 35.8°F2.1°C 72% 2.3 mph NNE3.7 kmh NNE 3.5 mph5.6 kmh 30.01 in1016.3 mb - 0.00 in0.0 mm 0.00 in0.0 mm
04:40 AM 44.4°F6.9°C 35.9°F2.2°C 72% 2.3 mph 3.7 kmh 3.5 mph5.6 kmh 30.01 in1016.3 mb - 0.00 in0.0 mm 0.00 in0.0 mm
04:35 AM 44.4°F6.9°C 36.0°F2.2°C 72% 3.5 mph N5.6 kmh N 3.5 mph5.6 kmh 30.01 in1016.3 mb - 0.00 in0.0 mm 0.00 in0.0 mm
04:30 AM 44.5°F6.9°C 35.7°F2.1°C 71% 3.5 mph NNW5.6 kmh NNW 3.5 mph5.6 kmh 30.01 in1016.3 mb - 0.00 in0.0 mm 0.00 in0.0 mm
04:25 AM 44.6°F7.0°C 36.1°F2.3°C 72% 3.5 mph N5.6 kmh N 4.6 mph7.4 kmh 30.01 in1016.3 mb - 0.00 in0.0 mm 0.00 in0.0 mm
04:20 AM 44.6°F7.0°C 35.8°F2.1°C 71% 3.5 mph NNW5.6 kmh NNW 3.5 mph5.6 kmh 30.01 in1016.3 mb - 0.00 in0.0 mm 0.00 in0.0 mm
04:15 AM 44.6°F7.0°C 35.4°F1.9°C 70% 3.5 mph N5.6 kmh N 3.5 mph5.6 kmh 30.01 in1016.3 mb - 0.00 in0.0 mm 0.00 in0.0 mm
04:10 AM 44.6°F7.0°C 35.8°F2.1°C 71% 3.5 mph NNW5.6 kmh NNW 3.5 mph5.6 kmh 30.01 in1016.3 mb - 0.00 in0.0 mm 0.00 in0.0 mm
04:00 AM 44.6°F7.0°C 35.4°F1.9°C 70% 3.5 mph N5.6 kmh N 3.5 mph5.6 kmh 30.01 in1016.3 mb - 0.00 in0.0 mm 0.00 in0.0 mm
03:55 AM 44.6°F7.0°C 35.4°F1.9°C 70% 2.3 mph N3.7 kmh N 2.3 mph3.7 kmh 30.00 in1015.9 mb - 0.00 in0.0 mm 0.00 in0.0 mm
03:50 AM 44.4°F6.9°C 35.6°F2.0°C 71% 2.3 mph NNE3.7 kmh NNE 3.5 mph5.6 kmh 30.00 in1015.9 mb - 0.00 in0.0 mm 0.00 in0.0 mm
03:45 AM 44.2°F6.8°C 35.4°F1.9°C 71% 2.3 mph NNW3.7 kmh NNW 3.5 mph5.6 kmh 30.00 in1015.9 mb - 0.00 in0.0 mm 0.00 in0.0 mm
03:40 AM 44.1°F6.7°C 34.5°F1.4°C 69% 2.3 mph NNE3.7 kmh NNE 2.3 mph3.7 kmh 30.01 in1016.3 mb - 0.00 in0.0 mm 0.00 in0.0 mm
03:35 AM 44.2°F6.8°C 34.6°F1.4°C 69% 2.3 mph NNE3.7 kmh NNE 2.3 mph3.7 kmh 30.01 in1016.3 mb - 0.00 in0.0 mm 0.00 in0.0 mm
03:30 AM 44.1°F6.7°C 33.8°F1.0°C 67% 2.3 mph NNW3.7 kmh NNW 2.3 mph3.7 kmh 30.01 in1016.3 mb - 0.00 in0.0 mm 0.00 in0.0 mm
03:25 AM 44.8°F7.1°C 35.2°F1.8°C 69% 2.3 mph N3.7 kmh N 3.5 mph5.6 kmh 30.00 in1015.9 mb - 0.00 in0.0 mm 0.00 in0.0 mm
03:20 AM 44.8°F7.1°C 35.2°F1.8°C 69% 3.5 mph NNW5.6 kmh NNW 3.5 mph5.6 kmh 30.00 in1015.9 mb - 0.00 in0.0 mm 0.00 in0.0 mm
03:15 AM 45.1°F7.3°C 35.6°F2.0°C 69% 2.3 mph NNW3.7 kmh NNW 2.3 mph3.7 kmh 30.00 in1015.9 mb - 0.00 in0.0 mm 0.00 in0.0 mm
03:10 AM 45.1°F7.3°C 34.8°F1.6°C 67% 2.3 mph N3.7 kmh N 3.5 mph5.6 kmh 30.01 in1016.3 mb - 0.00 in0.0 mm 0.00 in0.0 mm
03:00 AM 45.3°F7.4°C 35.7°F2.1°C 69% 3.5 mph NNW5.6 kmh NNW 3.5 mph5.6 kmh 30.01 in1016.3 mb - 0.00 in0.0 mm 0.00 in0.0 mm
02:55 AM 45.3°F7.4°C 35.4°F1.9°C 68% 2.3 mph N3.7 kmh N 3.5 mph5.6 kmh 30.01 in1016.3 mb - 0.00 in0.0 mm 0.00 in0.0 mm
02:50 AM 45.3°F7.4°C 35.7°F2.1°C 69% 3.5 mph N5.6 kmh N 3.5 mph5.6 kmh 30.01 in1016.3 mb - 0.00 in0.0 mm 0.00 in0.0 mm
02:45 AM 45.1°F7.3°C 34.8°F1.6°C 67% 2.3 mph NNE3.7 kmh NNE 3.5 mph5.6 kmh 30.01 in1016.3 mb - 0.00 in0.0 mm 0.00 in0.0 mm
02:40 AM 45.3°F7.4°C 34.6°F1.4°C 66% 2.3 mph NNE3.7 kmh NNE 2.3 mph3.7 kmh 30.01 in1016.3 mb - 0.00 in0.0 mm 0.00 in0.0 mm
02:35 AM 45.6°F7.6°C 35.6°F2.0°C 68% 2.3 mph NNE3.7 kmh NNE 2.3 mph3.7 kmh 30.01 in1016.3 mb - 0.00 in0.0 mm 0.00 in0.0 mm
02:30 AM 45.7°F7.6°C 35.7°F2.1°C 68% 3.5 mph N5.6 kmh N 3.5 mph5.6 kmh 30.01 in1016.3 mb - 0.00 in0.0 mm 0.00 in0.0 mm
02:25 AM 45.5°F7.5°C 35.2°F1.8°C 67% 2.3 mph 3.7 kmh 3.5 mph5.6 kmh 30.01 in1016.3 mb - 0.00 in0.0 mm 0.00 in0.0 mm
02:20 AM 45.7°F7.6°C 35.0°F1.7°C 66% 2.3 mph NNE3.7 kmh NNE 3.5 mph5.6 kmh 30.01 in1016.3 mb - 0.00 in0.0 mm 0.00 in0.0 mm
02:15 AM 45.7°F7.6°C 35.3°F1.8°C 67% 3.5 mph N5.6 kmh N 3.5 mph5.6 kmh 30.01 in1016.3 mb - 0.00 in0.0 mm 0.00 in0.0 mm
02:10 AM 45.7°F7.6°C 35.3°F1.8°C 67% 3.5 mph NNE5.6 kmh NNE 3.5 mph5.6 kmh 30.01 in1016.3 mb - 0.00 in0.0 mm 0.00 in0.0 mm
02:00 AM 45.7°F7.6°C 35.0°F1.7°C 66% 3.5 mph N5.6 kmh N 3.5 mph5.6 kmh 30.01 in1016.3 mb - 0.00 in0.0 mm 0.00 in0.0 mm
01:55 AM 45.5°F7.5°C 34.8°F1.6°C 66% 3.5 mph NNE5.6 kmh NNE 3.5 mph5.6 kmh 30.01 in1016.3 mb - 0.00 in0.0 mm 0.00 in0.0 mm
01:50 AM 45.5°F7.5°C 34.8°F1.6°C 66% 2.3 mph N3.7 kmh N 3.5 mph5.6 kmh 30.01 in1016.3 mb - 0.00 in0.0 mm 0.00 in0.0 mm
01:45 AM 45.5°F7.5°C 34.8°F1.6°C 66% 2.3 mph NNE3.7 kmh NNE 3.5 mph5.6 kmh 30.01 in1016.3 mb - 0.00 in0.0 mm 0.00 in0.0 mm
01:40 AM 45.5°F7.5°C 34.8°F1.6°C 66% 3.5 mph NNE5.6 kmh NNE 3.5 mph5.6 kmh 30.01 in1016.3 mb - 0.00 in0.0 mm 0.00 in0.0 mm
01:35 AM 45.3°F7.4°C 34.2°F1.2°C 65% 2.3 mph NNE3.7 kmh NNE 2.3 mph3.7 kmh 30.01 in1016.3 mb - 0.00 in0.0 mm 0.00 in0.0 mm
01:30 AM 45.5°F7.5°C 34.4°F1.3°C 65% 2.3 mph NNE3.7 kmh NNE 3.5 mph5.6 kmh 30.01 in1016.3 mb - 0.00 in0.0 mm 0.00 in0.0 mm
01:25 AM 45.5°F7.5°C 34.0°F1.1°C 64% 2.3 mph NNE3.7 kmh NNE 2.3 mph3.7 kmh 30.02 in1016.6 mb - 0.00 in0.0 mm 0.00 in0.0 mm
01:20 AM 46.0°F7.8°C 34.9°F1.6°C 65% 1.2 mph NNW1.9 kmh NNW 2.3 mph3.7 kmh 30.02 in1016.6 mb - 0.00 in0.0 mm 0.00 in0.0 mm
01:15 AM 46.4°F8.0°C 35.3°F1.8°C 65% 3.5 mph NNW5.6 kmh NNW 3.5 mph5.6 kmh 30.02 in1016.6 mb - 0.00 in0.0 mm 0.00 in0.0 mm
01:10 AM 46.4°F8.0°C 35.3°F1.8°C 65% 3.5 mph N5.6 kmh N 3.5 mph5.6 kmh 30.02 in1016.6 mb - 0.00 in0.0 mm 0.00 in0.0 mm
01:00 AM 46.2°F7.9°C 35.1°F1.7°C 65% 3.5 mph N5.6 kmh N 3.5 mph5.6 kmh 30.02 in1016.6 mb - 0.00 in0.0 mm 0.00 in0.0 mm
12:55 AM 45.9°F7.7°C 34.8°F1.6°C 65% 3.5 mph N5.6 kmh N 3.5 mph5.6 kmh 30.02 in1016.6 mb - 0.00 in0.0 mm 0.00 in0.0 mm
12:50 AM 45.3°F7.4°C 33.9°F1.1°C 64% 2.3 mph N3.7 kmh N 2.3 mph3.7 kmh 30.02 in1016.6 mb - 0.00 in0.0 mm 0.00 in0.0 mm
12:45 AM 45.5°F7.5°C 34.4°F1.3°C 65% 2.3 mph N3.7 kmh N 3.5 mph5.6 kmh 30.02 in1016.6 mb - 0.00 in0.0 mm 0.00 in0.0 mm
12:40 AM 45.4°F7.4°C 33.9°F1.1°C 64% 2.3 mph NNW3.7 kmh NNW 3.5 mph5.6 kmh 30.01 in1016.3 mb - 0.00 in0.0 mm 0.00 in0.0 mm
12:35 AM 45.3°F7.4°C 33.9°F1.1°C 64% 2.3 mph NNE3.7 kmh NNE 2.3 mph3.7 kmh 30.01 in1016.3 mb - 0.00 in0.0 mm 0.00 in0.0 mm
12:30 AM 45.1°F7.3°C 33.7°F0.9°C 64% 2.3 mph N3.7 kmh N 2.3 mph3.7 kmh 30.01 in1016.3 mb - 0.00 in0.0 mm 0.00 in0.0 mm
12:25 AM 45.1°F7.3°C 34.5°F1.4°C 66% 1.2 mph NNW1.9 kmh NNW 2.3 mph3.7 kmh 30.02 in1016.6 mb - 0.00 in0.0 mm 0.00 in0.0 mm
12:20 AM 44.2°F6.8°C 32.8°F0.4°C 64% 2.3 mph NNW3.7 kmh NNW 3.5 mph5.6 kmh 30.02 in1016.6 mb - 0.00 in0.0 mm 0.00 in0.0 mm
12:15 AM 44.2°F6.8°C 32.4°F0.2°C 63% 2.3 mph NNW3.7 kmh NNW 2.3 mph3.7 kmh 30.02 in1016.6 mb - 0.00 in0.0 mm 0.00 in0.0 mm
12:10 AM 44.4°F6.9°C 32.5°F0.3°C 63% 2.3 mph NNW3.7 kmh NNW 2.3 mph3.7 kmh 30.02 in1016.6 mb - 0.00 in0.0 mm 0.00 in0.0 mm
12:00 AM 44.6°F7.0°C 32.8°F0.4°C 63% 2.3 mph NNW3.7 kmh NNW 3.5 mph5.6 kmh 30.02 in1016.6 mb - 0.00 in0.0 mm 0.00 in0.0 mm